sensor_id;sensor_type;location;lat;lon;timestamp;P1;durP1;ratioP1;P2;durP2;ratioP2
4577;SDS011;2301;47.354;8.528;2023-02-11T00:02:01;15.50;;;8.85;;
4577;SDS011;2301;47.354;8.528;2023-02-11T00:04:29;13.55;;;8.32;;
4577;SDS011;2301;47.354;8.528;2023-02-11T00:06:57;12.82;;;8.45;;
4577;SDS011;2301;47.354;8.528;2023-02-11T00:09:24;15.50;;;9.27;;
4577;SDS011;2301;47.354;8.528;2023-02-11T00:11:51;14.70;;;9.05;;
4577;SDS011;2301;47.354;8.528;2023-02-11T00:14:18;16.58;;;9.65;;
4577;SDS011;2301;47.354;8.528;2023-02-11T00:16:45;14.13;;;8.63;;
4577;SDS011;2301;47.354;8.528;2023-02-11T00:19:12;16.88;;;9.00;;
4577;SDS011;2301;47.354;8.528;2023-02-11T00:21:39;15.48;;;8.30;;
4577;SDS011;2301;47.354;8.528;2023-02-11T00:24:08;14.52;;;8.38;;
4577;SDS011;2301;47.354;8.528;2023-02-11T00:26:35;18.48;;;9.55;;
4577;SDS011;2301;47.354;8.528;2023-02-11T00:29:02;16.73;;;8.30;;
4577;SDS011;2301;47.354;8.528;2023-02-11T00:31:30;15.38;;;8.40;;
4577;SDS011;2301;47.354;8.528;2023-02-11T00:33:57;18.52;;;8.80;;
4577;SDS011;2301;47.354;8.528;2023-02-11T00:36:26;14.38;;;9.20;;
4577;SDS011;2301;47.354;8.528;2023-02-11T00:38:54;12.77;;;8.18;;
4577;SDS011;2301;47.354;8.528;2023-02-11T00:41:23;12.07;;;8.45;;
4577;SDS011;2301;47.354;8.528;2023-02-11T00:43:50;12.63;;;8.43;;
4577;SDS011;2301;47.354;8.528;2023-02-11T00:46:18;14.00;;;8.57;;
4577;SDS011;2301;47.354;8.528;2023-02-11T00:48:45;23.10;;;8.77;;
4577;SDS011;2301;47.354;8.528;2023-02-11T00:51:12;13.48;;;8.38;;
4577;SDS011;2301;47.354;8.528;2023-02-11T00:53:40;14.77;;;8.52;;
4577;SDS011;2301;47.354;8.528;2023-02-11T00:56:07;15.85;;;8.85;;
4577;SDS011;2301;47.354;8.528;2023-02-11T00:58:36;12.40;;;8.25;;
4577;SDS011;2301;47.354;8.528;2023-02-11T01:01:03;18.13;;;10.23;;
4577;SDS011;2301;47.354;8.528;2023-02-11T01:03:30;17.08;;;9.02;;
4577;SDS011;2301;47.354;8.528;2023-02-11T01:05:57;11.73;;;8.05;;
4577;SDS011;2301;47.354;8.528;2023-02-11T01:08:24;14.35;;;8.95;;
4577;SDS011;2301;47.354;8.528;2023-02-11T01:10:55;13.80;;;9.13;;
4577;SDS011;2301;47.354;8.528;2023-02-11T01:13:23;10.50;;;7.10;;
4577;SDS011;2301;47.354;8.528;2023-02-11T01:15:52;12.63;;;8.27;;
4577;SDS011;2301;47.354;8.528;2023-02-11T01:18:20;13.18;;;8.77;;
4577;SDS011;2301;47.354;8.528;2023-02-11T01:20:47;12.98;;;8.10;;
4577;SDS011;2301;47.354;8.528;2023-02-11T01:23:15;16.27;;;9.07;;
4577;SDS011;2301;47.354;8.528;2023-02-11T01:25:42;13.77;;;7.70;;
4577;SDS011;2301;47.354;8.528;2023-02-11T01:28:12;13.35;;;8.32;;
4577;SDS011;2301;47.354;8.528;2023-02-11T01:30:42;13.40;;;8.02;;
4577;SDS011;2301;47.354;8.528;2023-02-11T01:33:11;14.75;;;8.27;;
4577;SDS011;2301;47.354;8.528;2023-02-11T01:35:38;13.23;;;8.25;;
4577;SDS011;2301;47.354;8.528;2023-02-11T01:38:05;11.75;;;7.85;;
4577;SDS011;2301;47.354;8.528;2023-02-11T01:40:33;12.95;;;8.70;;
4577;SDS011;2301;47.354;8.528;2023-02-11T01:43:00;12.15;;;8.00;;
4577;SDS011;2301;47.354;8.528;2023-02-11T01:48:25;14.13;;;7.97;;
4577;SDS011;2301;47.354;8.528;2023-02-11T01:50:56;13.70;;;9.38;;
4577;SDS011;2301;47.354;8.528;2023-02-11T01:53:28;11.65;;;7.90;;
4577;SDS011;2301;47.354;8.528;2023-02-11T01:56:26;13.63;;;8.27;;
4577;SDS011;2301;47.354;8.528;2023-02-11T01:59:12;16.42;;;9.38;;
4577;SDS011;2301;47.354;8.528;2023-02-11T02:01:44;14.45;;;8.20;;
4577;SDS011;2301;47.354;8.528;2023-02-11T02:04:17;13.48;;;8.70;;
4577;SDS011;2301;47.354;8.528;2023-02-11T02:06:46;12.73;;;8.75;;
4577;SDS011;2301;47.354;8.528;2023-02-11T02:09:19;12.05;;;8.40;;
4577;SDS011;2301;47.354;8.528;2023-02-11T02:11:48;16.92;;;8.70;;
4577;SDS011;2301;47.354;8.528;2023-02-11T02:14:17;13.82;;;8.45;;
4577;SDS011;2301;47.354;8.528;2023-02-11T02:16:45;12.23;;;8.35;;
4577;SDS011;2301;47.354;8.528;2023-02-11T02:19:21;14.27;;;9.15;;
4577;SDS011;2301;47.354;8.528;2023-02-11T02:22:16;13.68;;;8.95;;
4577;SDS011;2301;47.354;8.528;2023-02-11T02:25:08;13.02;;;8.23;;
4577;SDS011;2301;47.354;8.528;2023-02-11T02:28:01;14.13;;;8.45;;
4577;SDS011;2301;47.354;8.528;2023-02-11T02:30:52;13.20;;;7.80;;
4577;SDS011;2301;47.354;8.528;2023-02-11T02:33:41;15.55;;;9.00;;
4577;SDS011;2301;47.354;8.528;2023-02-11T02:36:13;13.57;;;7.45;;
4577;SDS011;2301;47.354;8.528;2023-02-11T02:38:49;14.27;;;8.07;;
4577;SDS011;2301;47.354;8.528;2023-02-11T02:41:21;12.82;;;8.25;;
4577;SDS011;2301;47.354;8.528;2023-02-11T02:43:52;12.10;;;7.93;;
4577;SDS011;2301;47.354;8.528;2023-02-11T02:46:20;13.90;;;8.88;;
4577;SDS011;2301;47.354;8.528;2023-02-11T02:48:50;16.17;;;8.77;;
4577;SDS011;2301;47.354;8.528;2023-02-11T02:51:24;13.68;;;8.60;;
4577;SDS011;2301;47.354;8.528;2023-02-11T02:54:15;13.02;;;8.90;;
4577;SDS011;2301;47.354;8.528;2023-02-11T02:56:55;12.88;;;9.48;;
4577;SDS011;2301;47.354;8.528;2023-02-11T02:59:32;13.30;;;8.63;;
4577;SDS011;2301;47.354;8.528;2023-02-11T03:02:10;14.20;;;8.30;;
4577;SDS011;2301;47.354;8.528;2023-02-11T03:04:45;13.43;;;8.70;;
4577;SDS011;2301;47.354;8.528;2023-02-11T03:07:19;13.15;;;8.50;;
4577;SDS011;2301;47.354;8.528;2023-02-11T03:09:54;12.27;;;8.38;;
4577;SDS011;2301;47.354;8.528;2023-02-11T03:12:25;11.82;;;8.43;;
4577;SDS011;2301;47.354;8.528;2023-02-11T03:14:55;12.45;;;8.73;;
4577;SDS011;2301;47.354;8.528;2023-02-11T03:17:23;15.15;;;9.80;;
4577;SDS011;2301;47.354;8.528;2023-02-11T03:19:54;14.70;;;9.27;;
4577;SDS011;2301;47.354;8.528;2023-02-11T03:22:23;11.98;;;7.85;;
4577;SDS011;2301;47.354;8.528;2023-02-11T03:24:53;13.68;;;8.55;;
4577;SDS011;2301;47.354;8.528;2023-02-11T03:27:24;15.73;;;9.13;;
4577;SDS011;2301;47.354;8.528;2023-02-11T03:29:54;12.32;;;8.20;;
4577;SDS011;2301;47.354;8.528;2023-02-11T03:32:27;13.48;;;9.00;;
4577;SDS011;2301;47.354;8.528;2023-02-11T03:35:01;20.80;;;9.05;;
4577;SDS011;2301;47.354;8.528;2023-02-11T03:37:34;12.15;;;7.93;;
4577;SDS011;2301;47.354;8.528;2023-02-11T03:40:04;14.77;;;9.32;;
4577;SDS011;2301;47.354;8.528;2023-02-11T03:42:36;12.40;;;8.60;;
4577;SDS011;2301;47.354;8.528;2023-02-11T03:45:07;15.45;;;9.93;;
4577;SDS011;2301;47.354;8.528;2023-02-11T03:47:37;13.77;;;8.88;;
4577;SDS011;2301;47.354;8.528;2023-02-11T03:50:10;10.70;;;7.47;;
4577;SDS011;2301;47.354;8.528;2023-02-11T03:52:39;12.93;;;8.10;;
4577;SDS011;2301;47.354;8.528;2023-02-11T03:55:08;12.52;;;8.55;;
4577;SDS011;2301;47.354;8.528;2023-02-11T03:57:38;14.10;;;8.60;;
4577;SDS011;2301;47.354;8.528;2023-02-11T04:00:06;11.48;;;8.65;;
4577;SDS011;2301;47.354;8.528;2023-02-11T04:02:35;12.68;;;8.15;;
4577;SDS011;2301;47.354;8.528;2023-02-11T04:05:03;15.00;;;8.60;;
4577;SDS011;2301;47.354;8.528;2023-02-11T04:07:33;12.50;;;8.13;;
4577;SDS011;2301;47.354;8.528;2023-02-11T04:10:00;12.00;;;8.27;;
4577;SDS011;2301;47.354;8.528;2023-02-11T04:12:27;13.30;;;8.50;;
4577;SDS011;2301;47.354;8.528;2023-02-11T04:14:54;12.70;;;9.05;;
4577;SDS011;2301;47.354;8.528;2023-02-11T04:17:21;11.57;;;7.95;;
4577;SDS011;2301;47.354;8.528;2023-02-11T04:19:48;14.75;;;8.18;;
4577;SDS011;2301;47.354;8.528;2023-02-11T04:22:15;10.05;;;7.10;;
4577;SDS011;2301;47.354;8.528;2023-02-11T04:24:43;13.27;;;8.70;;
4577;SDS011;2301;47.354;8.528;2023-02-11T04:27:10;12.38;;;8.07;;
4577;SDS011;2301;47.354;8.528;2023-02-11T04:29:37;13.88;;;7.70;;
4577;SDS011;2301;47.354;8.528;2023-02-11T04:32:04;12.65;;;7.72;;
4577;SDS011;2301;47.354;8.528;2023-02-11T04:34:31;12.18;;;8.25;;
4577;SDS011;2301;47.354;8.528;2023-02-11T04:36:57;10.20;;;7.53;;
4577;SDS011;2301;47.354;8.528;2023-02-11T04:39:24;14.57;;;8.45;;
4577;SDS011;2301;47.354;8.528;2023-02-11T04:41:53;12.27;;;8.40;;
4577;SDS011;2301;47.354;8.528;2023-02-11T04:44:20;11.88;;;8.15;;
4577;SDS011;2301;47.354;8.528;2023-02-11T04:46:47;11.18;;;7.28;;
4577;SDS011;2301;47.354;8.528;2023-02-11T04:49:14;12.43;;;8.05;;
4577;SDS011;2301;47.354;8.528;2023-02-11T04:51:42;11.80;;;7.90;;
4577;SDS011;2301;47.354;8.528;2023-02-11T04:54:09;13.63;;;8.20;;
4577;SDS011;2301;47.354;8.528;2023-02-11T04:56:36;13.27;;;8.15;;
4577;SDS011;2301;47.354;8.528;2023-02-11T04:59:05;13.63;;;8.52;;
4577;SDS011;2301;47.354;8.528;2023-02-11T05:01:32;11.65;;;7.85;;
4577;SDS011;2301;47.354;8.528;2023-02-11T05:03:59;15.43;;;8.20;;
4577;SDS011;2301;47.354;8.528;2023-02-11T05:06:26;11.80;;;8.77;;
4577;SDS011;2301;47.354;8.528;2023-02-11T05:08:53;12.10;;;7.75;;
4577;SDS011;2301;47.354;8.528;2023-02-11T05:11:21;12.85;;;8.18;;
4577;SDS011;2301;47.354;8.528;2023-02-11T05:13:49;11.05;;;7.82;;
4577;SDS011;2301;47.354;8.528;2023-02-11T05:16:17;12.15;;;7.88;;
4577;SDS011;2301;47.354;8.528;2023-02-11T05:18:44;13.38;;;7.20;;
4577;SDS011;2301;47.354;8.528;2023-02-11T05:21:12;13.55;;;7.88;;
4577;SDS011;2301;47.354;8.528;2023-02-11T05:23:41;14.82;;;9.57;;
4577;SDS011;2301;47.354;8.528;2023-02-11T05:26:09;34.17;;;9.63;;
4577;SDS011;2301;47.354;8.528;2023-02-11T05:28:37;13.82;;;7.70;;
4577;SDS011;2301;47.354;8.528;2023-02-11T05:31:04;12.95;;;7.97;;
4577;SDS011;2301;47.354;8.528;2023-02-11T05:33:33;12.45;;;7.97;;
4577;SDS011;2301;47.354;8.528;2023-02-11T05:36:01;13.88;;;8.95;;
4577;SDS011;2301;47.354;8.528;2023-02-11T05:38:30;12.52;;;7.70;;
4577;SDS011;2301;47.354;8.528;2023-02-11T05:40:57;12.65;;;7.65;;
4577;SDS011;2301;47.354;8.528;2023-02-11T05:43:24;13.48;;;7.95;;
4577;SDS011;2301;47.354;8.528;2023-02-11T05:45:50;12.15;;;7.47;;
4577;SDS011;2301;47.354;8.528;2023-02-11T05:48:17;12.48;;;8.23;;
4577;SDS011;2301;47.354;8.528;2023-02-11T05:50:46;11.10;;;8.10;;
4577;SDS011;2301;47.354;8.528;2023-02-11T05:53:13;13.63;;;9.32;;
4577;SDS011;2301;47.354;8.528;2023-02-11T05:55:40;14.57;;;9.07;;
4577;SDS011;2301;47.354;8.528;2023-02-11T05:58:07;13.55;;;8.02;;
4577;SDS011;2301;47.354;8.528;2023-02-11T06:00:34;11.25;;;7.63;;
4577;SDS011;2301;47.354;8.528;2023-02-11T06:03:01;15.68;;;8.45;;
4577;SDS011;2301;47.354;8.528;2023-02-11T06:05:28;11.32;;;7.88;;
4577;SDS011;2301;47.354;8.528;2023-02-11T06:07:57;13.32;;;8.57;;
4577;SDS011;2301;47.354;8.528;2023-02-11T06:10:24;12.63;;;8.68;;
4577;SDS011;2301;47.354;8.528;2023-02-11T06:12:51;14.60;;;8.05;;
4577;SDS011;2301;47.354;8.528;2023-02-11T06:15:18;11.55;;;7.55;;
4577;SDS011;2301;47.354;8.528;2023-02-11T06:17:45;10.90;;;8.05;;
4577;SDS011;2301;47.354;8.528;2023-02-11T06:20:12;20.23;;;8.85;;
4577;SDS011;2301;47.354;8.528;2023-02-11T06:22:39;11.65;;;7.70;;
4577;SDS011;2301;47.354;8.528;2023-02-11T06:25:07;10.38;;;6.90;;
4577;SDS011;2301;47.354;8.528;2023-02-11T06:27:36;12.43;;;8.50;;
4577;SDS011;2301;47.354;8.528;2023-02-11T06:30:03;13.32;;;8.65;;
4577;SDS011;2301;47.354;8.528;2023-02-11T06:32:31;11.70;;;7.80;;
4577;SDS011;2301;47.354;8.528;2023-02-11T06:34:58;13.80;;;9.10;;
4577;SDS011;2301;47.354;8.528;2023-02-11T06:37:25;15.82;;;8.35;;
4577;SDS011;2301;47.354;8.528;2023-02-11T06:39:52;12.93;;;8.77;;
4577;SDS011;2301;47.354;8.528;2023-02-11T06:42:20;13.38;;;8.63;;
4577;SDS011;2301;47.354;8.528;2023-02-11T06:44:47;14.82;;;8.88;;
4577;SDS011;2301;47.354;8.528;2023-02-11T06:47:14;14.30;;;8.90;;
4577;SDS011;2301;47.354;8.528;2023-02-11T06:49:41;10.50;;;7.85;;
4577;SDS011;2301;47.354;8.528;2023-02-11T06:52:08;10.65;;;7.47;;
4577;SDS011;2301;47.354;8.528;2023-02-11T06:54:35;10.77;;;7.63;;
4577;SDS011;2301;47.354;8.528;2023-02-11T06:57:02;16.85;;;9.27;;
4577;SDS011;2301;47.354;8.528;2023-02-11T06:59:31;15.85;;;9.95;;
4577;SDS011;2301;47.354;8.528;2023-02-11T07:01:57;14.23;;;8.38;;
4577;SDS011;2301;47.354;8.528;2023-02-11T07:04:24;14.85;;;9.98;;
4577;SDS011;2301;47.354;8.528;2023-02-11T07:06:51;15.85;;;8.80;;
4577;SDS011;2301;47.354;8.528;2023-02-11T07:09:18;13.63;;;8.95;;
4577;SDS011;2301;47.354;8.528;2023-02-11T07:11:45;15.65;;;8.77;;
4577;SDS011;2301;47.354;8.528;2023-02-11T07:14:12;14.43;;;9.05;;
4577;SDS011;2301;47.354;8.528;2023-02-11T07:16:40;16.65;;;10.35;;
4577;SDS011;2301;47.354;8.528;2023-02-11T07:19:07;21.65;;;14.35;;
4577;SDS011;2301;47.354;8.528;2023-02-11T07:21:34;25.27;;;15.27;;
4577;SDS011;2301;47.354;8.528;2023-02-11T07:24:01;22.08;;;14.98;;
4577;SDS011;2301;47.354;8.528;2023-02-11T07:26:32;28.30;;;16.77;;
4577;SDS011;2301;47.354;8.528;2023-02-11T07:28:59;31.77;;;16.55;;
4577;SDS011;2301;47.354;8.528;2023-02-11T07:31:27;24.33;;;15.30;;
4577;SDS011;2301;47.354;8.528;2023-02-11T07:33:56;28.33;;;17.83;;
4577;SDS011;2301;47.354;8.528;2023-02-11T07:36:25;32.60;;;19.23;;
4577;SDS011;2301;47.354;8.528;2023-02-11T07:38:53;27.95;;;17.17;;
4577;SDS011;2301;47.354;8.528;2023-02-11T07:41:20;31.55;;;18.98;;
4577;SDS011;2301;47.354;8.528;2023-02-11T07:43:48;26.15;;;17.17;;
4577;SDS011;2301;47.354;8.528;2023-02-11T07:46:16;27.95;;;17.40;;
4577;SDS011;2301;47.354;8.528;2023-02-11T07:48:45;32.75;;;17.30;;
4577;SDS011;2301;47.354;8.528;2023-02-11T07:51:14;31.48;;;17.95;;
4577;SDS011;2301;47.354;8.528;2023-02-11T07:53:44;27.98;;;17.42;;
4577;SDS011;2301;47.354;8.528;2023-02-11T07:56:12;31.27;;;18.10;;
4577;SDS011;2301;47.354;8.528;2023-02-11T07:58:40;26.98;;;16.60;;
4577;SDS011;2301;47.354;8.528;2023-02-11T08:01:08;30.15;;;17.85;;
4577;SDS011;2301;47.354;8.528;2023-02-11T08:03:38;29.30;;;18.13;;
4577;SDS011;2301;47.354;8.528;2023-02-11T08:06:07;31.88;;;18.98;;
4577;SDS011;2301;47.354;8.528;2023-02-11T08:08:36;29.27;;;18.42;;
4577;SDS011;2301;47.354;8.528;2023-02-11T08:11:04;33.03;;;17.67;;
4577;SDS011;2301;47.354;8.528;2023-02-11T08:13:33;30.63;;;17.35;;
4577;SDS011;2301;47.354;8.528;2023-02-11T08:16:00;22.02;;;13.25;;
4577;SDS011;2301;47.354;8.528;2023-02-11T08:18:27;29.25;;;8.27;;
4577;SDS011;2301;47.354;8.528;2023-02-11T08:20:55;28.77;;;7.45;;
4577;SDS011;2301;47.354;8.528;2023-02-11T08:23:21;20.77;;;7.72;;
4577;SDS011;2301;47.354;8.528;2023-02-11T08:25:50;19.98;;;9.43;;
4577;SDS011;2301;47.354;8.528;2023-02-11T08:28:17;18.77;;;9.05;;
4577;SDS011;2301;47.354;8.528;2023-02-11T08:30:43;15.60;;;8.20;;
4577;SDS011;2301;47.354;8.528;2023-02-11T08:33:10;11.38;;;7.97;;
4577;SDS011;2301;47.354;8.528;2023-02-11T08:35:37;14.35;;;8.02;;
4577;SDS011;2301;47.354;8.528;2023-02-11T08:38:04;15.75;;;9.25;;
4577;SDS011;2301;47.354;8.528;2023-02-11T08:40:31;11.77;;;8.27;;
4577;SDS011;2301;47.354;8.528;2023-02-11T08:42:59;14.93;;;8.75;;
4577;SDS011;2301;47.354;8.528;2023-02-11T08:45:26;12.20;;;8.77;;
4577;SDS011;2301;47.354;8.528;2023-02-11T08:47:53;16.33;;;7.83;;
4577;SDS011;2301;47.354;8.528;2023-02-11T08:50:20;17.10;;;8.40;;
4577;SDS011;2301;47.354;8.528;2023-02-11T08:52:47;12.77;;;8.13;;
4577;SDS011;2301;47.354;8.528;2023-02-11T08:55:14;20.00;;;14.97;;
4577;SDS011;2301;47.354;8.528;2023-02-11T08:57:40;20.50;;;15.00;;
4577;SDS011;2301;47.354;8.528;2023-02-11T09:00:09;22.20;;;14.57;;
4577;SDS011;2301;47.354;8.528;2023-02-11T09:02:37;18.53;;;14.20;;
4577;SDS011;2301;47.354;8.528;2023-02-11T09:05:05;20.47;;;14.30;;
4577;SDS011;2301;47.354;8.528;2023-02-11T09:07:32;23.80;;;15.53;;
4577;SDS011;2301;47.354;8.528;2023-02-11T09:09:59;19.10;;;14.07;;
4577;SDS011;2301;47.354;8.528;2023-02-11T09:12:26;24.27;;;15.80;;
4577;SDS011;2301;47.354;8.528;2023-02-11T09:14:53;20.60;;;14.77;;
4577;SDS011;2301;47.354;8.528;2023-02-11T09:17:22;22.30;;;15.00;;
4577;SDS011;2301;47.354;8.528;2023-02-11T09:19:48;25.27;;;14.93;;
4577;SDS011;2301;47.354;8.528;2023-02-11T09:22:15;24.02;;;15.02;;
4577;SDS011;2301;47.354;8.528;2023-02-11T09:24:42;27.13;;;17.70;;
4577;SDS011;2301;47.354;8.528;2023-02-11T09:27:09;28.35;;;17.88;;
4577;SDS011;2301;47.354;8.528;2023-02-11T09:29:36;29.73;;;18.33;;
4577;SDS011;2301;47.354;8.528;2023-02-11T09:32:03;30.08;;;19.27;;
4577;SDS011;2301;47.354;8.528;2023-02-11T09:34:32;33.28;;;17.08;;
4577;SDS011;2301;47.354;8.528;2023-02-11T09:36:59;26.20;;;16.70;;
4577;SDS011;2301;47.354;8.528;2023-02-11T09:39:26;25.98;;;15.35;;
4577;SDS011;2301;47.354;8.528;2023-02-11T09:41:58;25.17;;;16.67;;
4577;SDS011;2301;47.354;8.528;2023-02-11T09:44:49;31.35;;;16.75;;
4577;SDS011;2301;47.354;8.528;2023-02-11T09:47:20;25.65;;;16.25;;
4577;SDS011;2301;47.354;8.528;2023-02-11T09:49:53;25.60;;;15.85;;
4577;SDS011;2301;47.354;8.528;2023-02-11T09:52:29;27.67;;;18.48;;
4577;SDS011;2301;47.354;8.528;2023-02-11T09:55:00;28.00;;;18.05;;
4577;SDS011;2301;47.354;8.528;2023-02-11T09:57:30;30.70;;;18.58;;
4577;SDS011;2301;47.354;8.528;2023-02-11T09:59:58;31.13;;;18.30;;
4577;SDS011;2301;47.354;8.528;2023-02-11T10:02:27;26.35;;;17.08;;
4577;SDS011;2301;47.354;8.528;2023-02-11T10:05:18;24.95;;;17.13;;
4577;SDS011;2301;47.354;8.528;2023-02-11T10:07:55;24.25;;;16.25;;
4577;SDS011;2301;47.354;8.528;2023-02-11T10:10:35;29.35;;;17.42;;
4577;SDS011;2301;47.354;8.528;2023-02-11T10:13:16;24.63;;;16.92;;
4577;SDS011;2301;47.354;8.528;2023-02-11T10:15:54;24.45;;;17.52;;
4577;SDS011;2301;47.354;8.528;2023-02-11T10:18:39;27.08;;;17.60;;
4577;SDS011;2301;47.354;8.528;2023-02-11T10:21:35;28.17;;;17.45;;
4577;SDS011;2301;47.354;8.528;2023-02-11T10:24:11;29.67;;;16.58;;
4577;SDS011;2301;47.354;8.528;2023-02-11T10:26:41;27.63;;;18.10;;
4577;SDS011;2301;47.354;8.528;2023-02-11T10:29:11;24.65;;;16.63;;
4577;SDS011;2301;47.354;8.528;2023-02-11T10:31:47;25.92;;;16.30;;
4577;SDS011;2301;47.354;8.528;2023-02-11T10:34:15;23.63;;;15.55;;
4577;SDS011;2301;47.354;8.528;2023-02-11T10:36:44;23.95;;;16.80;;
4577;SDS011;2301;47.354;8.528;2023-02-11T10:39:12;24.77;;;15.25;;
4577;SDS011;2301;47.354;8.528;2023-02-11T10:41:40;26.40;;;17.13;;
4577;SDS011;2301;47.354;8.528;2023-02-11T10:44:13;21.52;;;14.88;;
4577;SDS011;2301;47.354;8.528;2023-02-11T10:46:47;23.67;;;14.45;;
4577;SDS011;2301;47.354;8.528;2023-02-11T10:52:10;20.38;;;13.65;;
4577;SDS011;2301;47.354;8.528;2023-02-11T10:54:58;23.60;;;14.02;;
4577;SDS011;2301;47.354;8.528;2023-02-11T10:57:29;23.17;;;13.88;;
4577;SDS011;2301;47.354;8.528;2023-02-11T11:00:00;24.65;;;14.60;;
4577;SDS011;2301;47.354;8.528;2023-02-11T11:02:35;20.83;;;13.52;;
4577;SDS011;2301;47.354;8.528;2023-02-11T11:05:14;18.65;;;13.02;;
4577;SDS011;2301;47.354;8.528;2023-02-11T11:07:52;23.15;;;15.00;;
4577;SDS011;2301;47.354;8.528;2023-02-11T11:10:25;19.90;;;13.43;;
4577;SDS011;2301;47.354;8.528;2023-02-11T11:16:05;24.38;;;14.38;;
4577;SDS011;2301;47.354;8.528;2023-02-11T11:18:48;20.88;;;14.48;;
4577;SDS011;2301;47.354;8.528;2023-02-11T11:21:17;24.25;;;15.60;;
4577;SDS011;2301;47.354;8.528;2023-02-11T11:23:49;21.45;;;13.50;;
4577;SDS011;2301;47.354;8.528;2023-02-11T11:26:18;27.25;;;15.32;;
4577;SDS011;2301;47.354;8.528;2023-02-11T11:28:51;26.17;;;13.18;;
4577;SDS011;2301;47.354;8.528;2023-02-11T11:31:22;22.33;;;14.15;;
4577;SDS011;2301;47.354;8.528;2023-02-11T11:33:53;21.30;;;14.10;;
4577;SDS011;2301;47.354;8.528;2023-02-11T11:36:24;22.15;;;14.35;;
4577;SDS011;2301;47.354;8.528;2023-02-11T11:39:00;22.23;;;14.55;;
4577;SDS011;2301;47.354;8.528;2023-02-11T11:41:47;24.40;;;16.58;;
4577;SDS011;2301;47.354;8.528;2023-02-11T11:44:20;32.83;;;16.25;;
4577;SDS011;2301;47.354;8.528;2023-02-11T11:47:03;26.38;;;17.05;;
4577;SDS011;2301;47.354;8.528;2023-02-11T11:49:47;28.23;;;16.83;;
4577;SDS011;2301;47.354;8.528;2023-02-11T11:52:21;37.33;;;18.25;;
4577;SDS011;2301;47.354;8.528;2023-02-11T11:55:02;25.67;;;18.00;;
4577;SDS011;2301;47.354;8.528;2023-02-11T11:57:37;28.20;;;17.10;;
4577;SDS011;2301;47.354;8.528;2023-02-11T12:00:05;27.77;;;16.92;;
4577;SDS011;2301;47.354;8.528;2023-02-11T12:02:50;22.65;;;15.27;;
4577;SDS011;2301;47.354;8.528;2023-02-11T12:05:49;26.45;;;16.45;;
4577;SDS011;2301;47.354;8.528;2023-02-11T12:08:28;30.02;;;17.70;;
4577;SDS011;2301;47.354;8.528;2023-02-11T12:11:09;30.90;;;18.27;;
4577;SDS011;2301;47.354;8.528;2023-02-11T12:13:45;25.40;;;16.58;;
4577;SDS011;2301;47.354;8.528;2023-02-11T12:16:26;28.20;;;18.17;;
4577;SDS011;2301;47.354;8.528;2023-02-11T12:19:18;26.40;;;16.90;;
4577;SDS011;2301;47.354;8.528;2023-02-11T12:22:17;26.65;;;16.48;;
4577;SDS011;2301;47.354;8.528;2023-02-11T12:24:54;25.77;;;16.45;;
4577;SDS011;2301;47.354;8.528;2023-02-11T12:27:37;24.42;;;16.17;;
4577;SDS011;2301;47.354;8.528;2023-02-11T12:30:15;27.42;;;17.15;;
4577;SDS011;2301;47.354;8.528;2023-02-11T12:32:48;28.58;;;16.20;;
4577;SDS011;2301;47.354;8.528;2023-02-11T12:35:24;27.52;;;16.38;;
4577;SDS011;2301;47.354;8.528;2023-02-11T12:38:06;31.65;;;16.35;;
4577;SDS011;2301;47.354;8.528;2023-02-11T12:40:50;29.48;;;17.25;;
4577;SDS011;2301;47.354;8.528;2023-02-11T12:43:33;24.08;;;16.58;;
4577;SDS011;2301;47.354;8.528;2023-02-11T12:46:12;26.90;;;17.38;;
4577;SDS011;2301;47.354;8.528;2023-02-11T12:49:11;25.48;;;16.85;;
4577;SDS011;2301;47.354;8.528;2023-02-11T12:52:04;30.38;;;16.92;;
4577;SDS011;2301;47.354;8.528;2023-02-11T12:54:45;25.27;;;15.70;;
4577;SDS011;2301;47.354;8.528;2023-02-11T12:57:20;22.67;;;15.88;;
4577;SDS011;2301;47.354;8.528;2023-02-11T12:59:52;29.05;;;16.85;;
4577;SDS011;2301;47.354;8.528;2023-02-11T13:02:27;24.63;;;16.73;;
4577;SDS011;2301;47.354;8.528;2023-02-11T13:05:00;22.52;;;15.57;;
4577;SDS011;2301;47.354;8.528;2023-02-11T13:07:36;23.67;;;16.30;;
4577;SDS011;2301;47.354;8.528;2023-02-11T13:10:15;25.20;;;16.58;;
4577;SDS011;2301;47.354;8.528;2023-02-11T13:12:50;25.95;;;16.42;;
4577;SDS011;2301;47.354;8.528;2023-02-11T13:15:39;23.25;;;15.93;;
4577;SDS011;2301;47.354;8.528;2023-02-11T13:18:12;27.45;;;15.45;;
4577;SDS011;2301;47.354;8.528;2023-02-11T13:20:48;25.55;;;16.05;;
4577;SDS011;2301;47.354;8.528;2023-02-11T13:23:25;24.27;;;15.15;;
4577;SDS011;2301;47.354;8.528;2023-02-11T13:26:07;31.65;;;16.20;;
4577;SDS011;2301;47.354;8.528;2023-02-11T13:28:40;25.85;;;16.23;;
4577;SDS011;2301;47.354;8.528;2023-02-11T13:31:12;22.05;;;15.00;;
4577;SDS011;2301;47.354;8.528;2023-02-11T13:33:40;21.38;;;14.57;;
4577;SDS011;2301;47.354;8.528;2023-02-11T13:36:17;21.85;;;13.70;;
4577;SDS011;2301;47.354;8.528;2023-02-11T13:38:53;23.77;;;14.35;;
4577;SDS011;2301;47.354;8.528;2023-02-11T13:41:29;22.25;;;14.90;;
4577;SDS011;2301;47.354;8.528;2023-02-11T13:44:03;21.98;;;12.70;;
4577;SDS011;2301;47.354;8.528;2023-02-11T13:46:49;16.20;;;11.77;;
4577;SDS011;2301;47.354;8.528;2023-02-11T13:49:20;23.38;;;13.95;;
4577;SDS011;2301;47.354;8.528;2023-02-11T13:51:49;25.15;;;14.07;;
4577;SDS011;2301;47.354;8.528;2023-02-11T13:54:19;22.27;;;13.27;;
4577;SDS011;2301;47.354;8.528;2023-02-11T14:00:00;26.95;;;16.02;;
4577;SDS011;2301;47.354;8.528;2023-02-11T14:02:32;28.55;;;18.13;;
4577;SDS011;2301;47.354;8.528;2023-02-11T14:05:24;28.05;;;17.45;;
4577;SDS011;2301;47.354;8.528;2023-02-11T14:08:12;28.58;;;17.05;;
4577;SDS011;2301;47.354;8.528;2023-02-11T14:11:02;31.02;;;16.55;;
4577;SDS011;2301;47.354;8.528;2023-02-11T14:13:32;24.98;;;16.05;;
4577;SDS011;2301;47.354;8.528;2023-02-11T14:16:07;22.38;;;14.13;;
4577;SDS011;2301;47.354;8.528;2023-02-11T14:21:31;26.60;;;15.38;;
4577;SDS011;2301;47.354;8.528;2023-02-11T14:27:02;25.70;;;15.60;;
4577;SDS011;2301;47.354;8.528;2023-02-11T14:29:35;26.75;;;16.48;;
4577;SDS011;2301;47.354;8.528;2023-02-11T14:32:09;27.20;;;17.40;;
4577;SDS011;2301;47.354;8.528;2023-02-11T14:34:54;27.08;;;16.20;;
4577;SDS011;2301;47.354;8.528;2023-02-11T14:37:31;27.92;;;18.17;;
4577;SDS011;2301;47.354;8.528;2023-02-11T14:40:15;28.45;;;16.60;;
4577;SDS011;2301;47.354;8.528;2023-02-11T14:42:49;30.17;;;16.90;;
4577;SDS011;2301;47.354;8.528;2023-02-11T14:45:19;30.98;;;17.15;;
4577;SDS011;2301;47.354;8.528;2023-02-11T14:47:50;31.85;;;17.10;;
4577;SDS011;2301;47.354;8.528;2023-02-11T14:50:25;27.92;;;15.32;;
4577;SDS011;2301;47.354;8.528;2023-02-11T14:52:57;27.95;;;16.02;;
4577;SDS011;2301;47.354;8.528;2023-02-11T14:55:26;28.67;;;18.02;;
4577;SDS011;2301;47.354;8.528;2023-02-11T14:58:03;33.42;;;17.70;;
4577;SDS011;2301;47.354;8.528;2023-02-11T15:00:32;28.92;;;17.23;;
4577;SDS011;2301;47.354;8.528;2023-02-11T15:02:59;26.60;;;15.65;;
4577;SDS011;2301;47.354;8.528;2023-02-11T15:05:28;21.40;;;14.43;;
4577;SDS011;2301;47.354;8.528;2023-02-11T15:07:56;23.80;;;14.45;;
4577;SDS011;2301;47.354;8.528;2023-02-11T15:10:27;19.63;;;12.32;;
4577;SDS011;2301;47.354;8.528;2023-02-11T15:12:57;23.15;;;14.48;;
4577;SDS011;2301;47.354;8.528;2023-02-11T15:15:25;22.58;;;14.40;;
4577;SDS011;2301;47.354;8.528;2023-02-11T15:17:52;27.23;;;15.43;;
4577;SDS011;2301;47.354;8.528;2023-02-11T15:20:21;24.98;;;14.32;;
4577;SDS011;2301;47.354;8.528;2023-02-11T15:22:55;20.88;;;14.40;;
4577;SDS011;2301;47.354;8.528;2023-02-11T15:25:25;23.90;;;15.02;;
4577;SDS011;2301;47.354;8.528;2023-02-11T15:27:53;24.98;;;14.98;;
4577;SDS011;2301;47.354;8.528;2023-02-11T15:30:23;21.77;;;13.73;;
4577;SDS011;2301;47.354;8.528;2023-02-11T15:32:52;31.05;;;16.85;;
4577;SDS011;2301;47.354;8.528;2023-02-11T15:35:23;25.02;;;16.02;;
4577;SDS011;2301;47.354;8.528;2023-02-11T15:37:54;24.05;;;15.00;;
4577;SDS011;2301;47.354;8.528;2023-02-11T15:40:22;23.33;;;13.98;;